Time;durP1;ratioP1;P1;durP2;ratioP2;P2;SDS_P1;SDS_P2;PMS_P1;PMS_P2;Temp;Humidity;BMP_temperature;BMP_pressure;BME280_temperature;BME280_humidity;BME280_pressure;Samples;Min_cycle;Max_cycle;Signal;HPM_P1;HPM_P2
2022/11/02 00:01:07;;;;;;;;;;;;;9.50;97857.20;;;;108886;1269;42405;-58
2022/11/02 00:03:36;;;;;;;;;;;;;9.50;97859.60;;;;108959;1269;41239;-56
2022/11/02 00:06:05;;;;;;;;;;;;;9.50;97852.40;;;;108922;1273;41172;-56
2022/11/02 00:08:35;;;;;;;;;;;;;9.50;97856.00;;;;108878;1269;41643;-56
2022/11/02 00:11:05;;;;;;;;;;;;;9.50;97852.20;;;;108586;1271;41469;-56
2022/11/02 00:13:35;;;;;;;;;;;;;9.50;97850.20;;;;108884;1269;41627;-56
2022/11/02 00:16:05;;;;;;;;;;;;;9.52;97848.20;;;;108853;1269;41636;-56
2022/11/02 00:18:34;;;;;;;;;;;;;9.50;97854.60;;;;108862;1269;42421;-56
2022/11/02 00:21:03;;;;;;;;;;;;;9.50;97851.20;;;;109014;1269;42492;-57
2022/11/02 00:23:33;;;;;;;;;;;;;9.40;97850.00;;;;108971;1269;41624;-57
2022/11/02 00:26:02;;;;;;;;;;;;;9.30;97850.80;;;;108964;1269;41431;-57
2022/11/02 00:28:32;;;;;;;;;;;;;9.30;97847.60;;;;108632;1271;41249;-56
2022/11/02 00:31:02;;;;;;;;;;;;;9.40;97847.80;;;;108942;1269;41331;-57
2022/11/02 00:33:32;;;;;;;;;;;;;9.38;97846.20;;;;109002;1269;41258;-57
2022/11/02 00:36:01;;;;;;;;;;;;;9.30;97844.60;;;;108989;1269;41146;-58
2022/11/02 00:38:31;;;;;;;;;;;;;9.30;97842.00;;;;108982;1265;41207;-57
2022/11/02 00:41:00;;;;;;;;;;;;;9.30;97842.00;;;;108840;1271;41161;-56
2022/11/02 00:43:29;;;;;;;;;;;;;9.30;97839.60;;;;108899;1270;41910;-58
2022/11/02 00:45:58;;;;;;;;;;;;;9.30;97838.80;;;;108608;1271;42151;-57
2022/11/02 00:48:27;;;;;;;;;;;;;9.30;97837.00;;;;108934;1269;41218;-57
2022/11/02 00:50:57;;;;;;;;;;;;;9.28;97840.20;;;;108723;1271;41407;-56
2022/11/02 00:53:28;;;;;;;;;;;;;9.20;97836.60;;;;108787;1271;41141;-57
2022/11/02 00:55:59;;;;;;;;;;;;;9.20;97834.00;;;;108862;1271;41151;-56
2022/11/02 00:58:29;;;;;;;;;;;;;9.20;97830.80;;;;109010;1269;41166;-57
2022/11/02 01:01:07;;;;;;;;;;;;;9.14;97832.20;;;;108827;1269;41698;-57
2022/11/02 01:03:37;;;;;;;;;;;;;9.10;97833.80;;;;108990;1269;41148;-56
2022/11/02 01:06:08;;;;;;;;;;;;;9.10;97830.60;;;;108980;1269;41177;-56
2022/11/02 01:08:38;;;;;;;;;;;;;9.04;97830.80;;;;108825;1271;41249;-56
2022/11/02 01:11:09;;;;;;;;;;;;;9.00;97829.20;;;;108985;1269;41134;-58
2022/11/02 01:13:38;;;;;;;;;;;;;9.00;97822.20;;;;108843;1270;42300;-57
2022/11/02 01:16:08;;;;;;;;;;;;;9.00;97826.60;;;;108981;1269;41166;-58
2022/11/02 01:18:38;;;;;;;;;;;;;9.00;97824.20;;;;108964;1269;41157;-57
2022/11/02 01:21:10;;;;;;;;;;;;;8.90;97825.40;;;;108978;1271;42103;-57
2022/11/02 01:23:40;;;;;;;;;;;;;8.90;97827.20;;;;109001;1269;41182;-57
2022/11/02 01:26:11;;;;;;;;;;;;;8.90;97819.20;;;;108803;1271;41136;-57
2022/11/02 01:28:40;;;;;;;;;;;;;8.90;97821.60;;;;108963;1269;41620;-57
2022/11/02 01:31:10;;;;;;;;;;;;;8.90;97822.80;;;;108970;1269;41148;-58
2022/11/02 01:33:43;;;;;;;;;;;;;8.90;97814.80;;;;109008;1269;41167;-57
2022/11/02 01:36:14;;;;;;;;;;;;;8.90;97816.20;;;;108829;1269;41241;-56
2022/11/02 01:38:44;;;;;;;;;;;;;8.90;97815.80;;;;108996;1269;41148;-57
2022/11/02 01:41:16;;;;;;;;;;;;;8.90;97817.60;;;;108816;1269;41240;-56
2022/11/02 01:43:48;;;;;;;;;;;;;8.80;97809.40;;;;108927;1269;41155;-57
2022/11/02 01:46:36;;;;;;;;;;;;;8.80;97805.20;;;;108723;1271;41540;-57
2022/11/02 01:49:08;;;;;;;;;;;;;8.80;97800.00;;;;108696;1269;41171;-56
2022/11/02 01:51:39;;;;;;;;;;;;;8.80;97793.40;;;;108816;1271;41689;-56
2022/11/02 01:54:12;;;;;;;;;;;;;8.80;97800.40;;;;108771;1269;41306;-57
2022/11/02 01:56:43;;;;;;;;;;;;;8.80;97804.00;;;;108972;1269;42338;-57
2022/11/02 01:59:15;;;;;;;;;;;;;8.80;97805.00;;;;108802;1269;41152;-57
2022/11/02 02:01:45;;;;;;;;;;;;;8.80;97806.20;;;;108704;1271;41610;-57
2022/11/02 02:04:15;;;;;;;;;;;;;8.80;97812.20;;;;108794;1271;41536;-57
2022/11/02 02:06:46;;;;;;;;;;;;;8.80;97809.00;;;;108979;1269;41624;-56
2022/11/02 02:09:15;;;;;;;;;;;;;8.80;97806.60;;;;108830;1271;41643;-57
2022/11/02 02:11:45;;;;;;;;;;;;;8.80;97803.00;;;;108622;1265;41582;-57
2022/11/02 02:14:16;;;;;;;;;;;;;8.80;97798.20;;;;108807;1269;41617;-57
2022/11/02 02:16:47;;;;;;;;;;;;;8.80;97794.40;;;;108786;1269;41249;-57
2022/11/02 02:19:30;;;;;;;;;;;;;8.78;97792.60;;;;108947;1269;41403;-57
2022/11/02 02:22:19;;;;;;;;;;;;;8.70;97794.20;;;;108782;1271;41146;-57
2022/11/02 02:25:01;;;;;;;;;;;;;8.70;97794.20;;;;108946;1271;42171;-57
2022/11/02 02:27:42;;;;;;;;;;;;;8.64;97794.60;;;;108946;1269;41272;-56
2022/11/02 02:30:12;;;;;;;;;;;;;8.60;97798.40;;;;108987;1269;41163;-57
2022/11/02 02:32:41;;;;;;;;;;;;;8.60;97800.60;;;;108720;1269;41140;-57
2022/11/02 02:35:29;;;;;;;;;;;;;8.60;97807.80;;;;108959;1269;41147;-57
2022/11/02 02:38:00;;;;;;;;;;;;;8.60;97824.20;;;;108936;1269;41146;-57
2022/11/02 02:40:32;;;;;;;;;;;;;8.56;97838.00;;;;108614;1271;41692;-56
2022/11/02 02:43:07;;;;;;;;;;;;;8.50;97844.40;;;;108940;1269;41928;-57
2022/11/02 02:45:43;;;;;;;;;;;;;8.50;97841.60;;;;108989;1269;41190;-58
2022/11/02 02:48:15;;;;;;;;;;;;;8.50;97843.40;;;;108726;1269;41616;-58
2022/11/02 02:50:46;;;;;;;;;;;;;8.50;97854.40;;;;108895;1269;41150;-58
2022/11/02 02:53:21;;;;;;;;;;;;;8.40;97858.00;;;;108832;1271;41233;-56
2022/11/02 02:55:52;;;;;;;;;;;;;8.40;97851.00;;;;108850;1269;41765;-56
2022/11/02 02:58:25;;;;;;;;;;;;;8.40;97863.40;;;;108715;1271;41366;-56
2022/11/02 03:00:54;;;;;;;;;;;;;8.42;97854.60;;;;108780;1268;41161;-56
2022/11/02 03:03:25;;;;;;;;;;;;;8.48;97854.60;;;;108816;1269;42718;-57
2022/11/02 03:05:58;;;;;;;;;;;;;8.50;97857.00;;;;108927;1269;41425;-57
2022/11/02 03:08:27;;;;;;;;;;;;;8.46;97858.60;;;;108996;1269;41162;-57
2022/11/02 03:11:16;;;;;;;;;;;;;8.48;97859.80;;;;108928;1269;41504;-57
2022/11/02 03:14:01;;;;;;;;;;;;;8.50;97860.00;;;;108631;1271;41155;-55
2022/11/02 03:16:36;;;;;;;;;;;;;8.42;97860.20;;;;108850;1269;42036;-56
2022/11/02 03:19:11;;;;;;;;;;;;;8.50;97861.00;;;;108865;1269;41636;-55
2022/11/02 03:21:42;;;;;;;;;;;;;8.50;97861.00;;;;108652;1269;41166;-56
2022/11/02 03:24:13;;;;;;;;;;;;;8.50;97854.20;;;;108623;1271;41397;-56
2022/11/02 03:26:49;;;;;;;;;;;;;8.50;97857.00;;;;108647;1270;41867;-56
2022/11/02 03:29:27;;;;;;;;;;;;;8.50;97864.00;;;;108968;1269;42255;-57
2022/11/02 03:31:58;;;;;;;;;;;;;8.50;97867.60;;;;109017;1269;41616;-57
2022/11/02 03:34:28;;;;;;;;;;;;;8.58;97860.60;;;;109037;1260;41156;-57
2022/11/02 03:37:02;;;;;;;;;;;;;8.60;97864.00;;;;108779;1269;41155;-57
2022/11/02 03:39:33;;;;;;;;;;;;;8.60;97859.00;;;;108890;1263;41161;-58
2022/11/02 03:42:03;;;;;;;;;;;;;8.60;97854.00;;;;108668;1271;41170;-57
2022/11/02 03:44:36;;;;;;;;;;;;;8.60;97854.00;;;;108709;1271;41242;-55
2022/11/02 03:47:07;;;;;;;;;;;;;8.60;97849.20;;;;108871;1271;41174;-57
2022/11/02 03:49:36;;;;;;;;;;;;;8.60;97847.20;;;;108622;1271;41964;-55
2022/11/02 03:52:07;;;;;;;;;;;;;8.70;97842.00;;;;109012;1269;41163;-57
2022/11/02 03:54:41;;;;;;;;;;;;;8.70;97840.20;;;;108989;1269;41222;-56
2022/11/02 03:57:12;;;;;;;;;;;;;8.70;97845.40;;;;108836;1270;41186;-57
2022/11/02 03:59:40;;;;;;;;;;;;;8.70;97838.20;;;;108959;1269;41640;-57
2022/11/02 04:02:10;;;;;;;;;;;;;8.70;97843.00;;;;108793;1271;41149;-57
2022/11/02 04:04:48;;;;;;;;;;;;;8.70;97835.20;;;;108603;1269;42184;-57
2022/11/02 04:07:18;;;;;;;;;;;;;8.70;97839.00;;;;108838;1270;42107;-58
2022/11/02 04:09:48;;;;;;;;;;;;;8.70;97833.20;;;;108808;1270;41179;-58
2022/11/02 04:15:06;;;;;;;;;;;;;8.70;97832.60;;;;108974;1269;41731;-56
2022/11/02 04:20:25;;;;;;;;;;;;;8.70;97834.00;;;;108960;1269;41356;-57
2022/11/02 04:25:43;;;;;;;;;;;;;8.66;97833.60;;;;108978;1269;41635;-57
2022/11/02 04:28:15;;;;;;;;;;;;;8.70;97837.80;;;;108808;1269;41892;-57
2022/11/02 04:31:02;;;;;;;;;;;;;8.70;97833.40;;;;108960;1269;41170;-57
2022/11/02 04:33:36;;;;;;;;;;;;;8.70;97826.80;;;;108664;1271;41557;-57
2022/11/02 04:36:07;;;;;;;;;;;;;8.60;97828.40;;;;108951;1269;41456;-57
2022/11/02 04:38:41;;;;;;;;;;;;;8.60;97833.80;;;;108975;1268;41293;-56
2022/11/02 04:44:10;;;;;;;;;;;;;8.60;97833.60;;;;108936;1269;40852;-56
2022/11/02 04:46:39;;;;;;;;;;;;;8.60;97846.60;;;;108764;1262;41635;-57
2022/11/02 04:49:09;;;;;;;;;;;;;8.60;97850.00;;;;108862;1268;42089;-58
2022/11/02 04:51:39;;;;;;;;;;;;;8.64;97846.00;;;;108956;1269;41399;-57
2022/11/02 04:54:12;;;;;;;;;;;;;8.70;97847.60;;;;108982;1269;41221;-57
2022/11/02 04:56:41;;;;;;;;;;;;;8.60;97856.80;;;;108833;1269;41249;-57
2022/11/02 04:59:11;;;;;;;;;;;;;8.60;97851.60;;;;108971;1269;41977;-57
2022/11/02 05:01:41;;;;;;;;;;;;;8.62;97854.40;;;;108965;1269;41545;-57
2022/11/02 05:04:10;;;;;;;;;;;;;8.60;97852.00;;;;108965;1269;41588;-56
2022/11/02 05:06:39;;;;;;;;;;;;;8.60;97855.20;;;;108789;1269;41407;-56
2022/11/02 05:09:09;;;;;;;;;;;;;8.60;97854.60;;;;108926;1269;41362;-57
2022/11/02 05:11:41;;;;;;;;;;;;;8.60;97845.80;;;;108761;1270;41276;-57
2022/11/02 05:14:10;;;;;;;;;;;;;8.60;97849.60;;;;109006;1265;41271;-57
2022/11/02 05:16:39;;;;;;;;;;;;;8.60;97850.80;;;;108761;1269;41238;-57
2022/11/02 05:19:09;;;;;;;;;;;;;8.60;97848.00;;;;108830;1269;41639;-56
2022/11/02 05:21:39;;;;;;;;;;;;;8.64;97847.00;;;;108814;1271;41635;-57
2022/11/02 05:24:08;;;;;;;;;;;;;8.60;97849.00;;;;108977;1269;41251;-57
2022/11/02 05:26:37;;;;;;;;;;;;;8.60;97852.00;;;;108990;1269;41613;-59
2022/11/02 05:29:06;;;;;;;;;;;;;8.62;97850.40;;;;108899;1269;41929;-57
2022/11/02 05:31:35;;;;;;;;;;;;;8.62;97852.40;;;;108934;1268;42570;-58
2022/11/02 05:34:04;;;;;;;;;;;;;8.60;97859.80;;;;108895;1269;41148;-59
2022/11/02 05:36:33;;;;;;;;;;;;;8.64;97862.40;;;;108714;1269;41774;-57
2022/11/02 05:39:03;;;;;;;;;;;;;8.64;97864.60;;;;108973;1269;41204;-57
2022/11/02 05:41:32;;;;;;;;;;;;;8.70;97864.60;;;;108598;1271;42281;-57
2022/11/02 05:44:01;;;;;;;;;;;;;8.66;97865.20;;;;108848;1270;42415;-59
2022/11/02 05:46:31;;;;;;;;;;;;;8.60;97871.40;;;;108641;1268;41599;-59
2022/11/02 05:48:59;;;;;;;;;;;;;8.52;97870.60;;;;108908;1269;41173;-58
2022/11/02 05:51:28;;;;;;;;;;;;;8.60;97876.40;;;;109008;1269;42327;-56
2022/11/02 05:53:58;;;;;;;;;;;;;8.60;97884.40;;;;108866;1269;41184;-58
2022/11/02 05:56:26;;;;;;;;;;;;;8.60;97889.80;;;;108960;1269;41133;-57
2022/11/02 05:58:55;;;;;;;;;;;;;8.58;97890.60;;;;108992;1269;41146;-57
2022/11/02 06:01:25;;;;;;;;;;;;;8.48;97896.40;;;;109013;1265;41141;-57
2022/11/02 06:03:53;;;;;;;;;;;;;8.30;97897.80;;;;108951;1269;41134;-58
2022/11/02 06:06:22;;;;;;;;;;;;;8.30;97903.60;;;;108923;1266;41468;-57
2022/11/02 06:08:50;;;;;;;;;;;;;8.40;97908.60;;;;108971;1269;41877;-57
2022/11/02 06:11:19;;;;;;;;;;;;;8.40;97907.60;;;;108944;1269;41170;-57
2022/11/02 06:13:49;;;;;;;;;;;;;8.40;97910.00;;;;108975;1268;41240;-57
2022/11/02 06:16:17;;;;;;;;;;;;;8.50;97915.20;;;;108945;1269;41614;-57
2022/11/02 06:18:50;;;;;;;;;;;;;8.50;97922.80;;;;108973;1269;41155;-57
2022/11/02 06:21:19;;;;;;;;;;;;;8.60;97920.00;;;;109020;1269;42147;-56
2022/11/02 06:23:48;;;;;;;;;;;;;8.60;97923.00;;;;108941;1260;41400;-56
2022/11/02 06:26:17;;;;;;;;;;;;;8.62;97921.80;;;;108908;1266;42461;-57
2022/11/02 06:28:46;;;;;;;;;;;;;8.70;97925.80;;;;108869;1269;41159;-57
2022/11/02 06:31:16;;;;;;;;;;;;;8.70;97929.20;;;;108843;1266;41243;-57
2022/11/02 06:33:44;;;;;;;;;;;;;8.80;97934.40;;;;108874;1269;41250;-58
2022/11/02 06:36:13;;;;;;;;;;;;;8.80;97935.60;;;;108889;1265;41266;-57
2022/11/02 06:38:44;;;;;;;;;;;;;8.80;97930.60;;;;108862;1270;41244;-57
2022/11/02 06:41:13;;;;;;;;;;;;;8.80;97934.20;;;;109037;1269;41159;-57
2022/11/02 06:43:42;;;;;;;;;;;;;8.80;97933.60;;;;108979;1265;41625;-56
2022/11/02 06:46:10;;;;;;;;;;;;;8.84;97938.20;;;;108929;1266;42180;-56
2022/11/02 06:48:38;;;;;;;;;;;;;8.90;97938.80;;;;108897;1268;41412;-56
2022/11/02 06:51:07;;;;;;;;;;;;;9.00;97950.00;;;;108876;1269;42211;-57
2022/11/02 06:53:36;;;;;;;;;;;;;9.00;97946.80;;;;108942;1269;41149;-57
2022/11/02 06:56:05;;;;;;;;;;;;;9.08;97957.20;;;;108968;1269;41190;-56
2022/11/02 06:58:33;;;;;;;;;;;;;9.10;97950.60;;;;108992;1269;41147;-56
2022/11/02 07:01:03;;;;;;;;;;;;;9.10;97950.20;;;;108989;1269;41614;-57
2022/11/02 07:03:32;;;;;;;;;;;;;9.10;97951.80;;;;108972;1269;41224;-57
2022/11/02 07:06:01;;;;;;;;;;;;;9.10;97948.00;;;;108987;1269;42523;-57
2022/11/02 07:08:30;;;;;;;;;;;;;9.10;97951.80;;;;108993;1269;41149;-57
2022/11/02 07:11:00;;;;;;;;;;;;;9.20;97951.00;;;;108930;1266;41156;-57
2022/11/02 07:13:29;;;;;;;;;;;;;9.20;97954.60;;;;108843;1269;41217;-57
2022/11/02 07:15:57;;;;;;;;;;;;;9.20;97956.80;;;;108959;1269;41235;-57
2022/11/02 07:18:26;;;;;;;;;;;;;9.20;97958.20;;;;109000;1269;41605;-56
2022/11/02 07:20:54;;;;;;;;;;;;;9.28;97963.40;;;;108931;1269;42410;-57
2022/11/02 07:23:24;;;;;;;;;;;;;9.30;97958.80;;;;108730;1269;41150;-57
2022/11/02 07:25:53;;;;;;;;;;;;;9.36;97958.40;;;;108874;1269;41134;-57
2022/11/02 07:28:21;;;;;;;;;;;;;9.40;97958.40;;;;108581;1269;366703;-57
2022/11/02 07:30:52;;;;;;;;;;;;;9.42;97957.20;;;;108898;1269;41229;-57
2022/11/02 07:33:21;;;;;;;;;;;;;9.50;97957.80;;;;108935;1268;41146;-56
2022/11/02 07:35:50;;;;;;;;;;;;;9.50;97958.80;;;;108828;1267;41144;-56
2022/11/02 07:38:19;;;;;;;;;;;;;9.44;97964.00;;;;108800;1260;41397;-56
2022/11/02 07:40:47;;;;;;;;;;;;;9.20;97959.40;;;;108851;1269;41605;-57
2022/11/02 07:43:16;;;;;;;;;;;;;9.20;97957.40;;;;108819;1269;42055;-57
2022/11/02 07:45:55;;;;;;;;;;;;;9.22;97957.20;;;;108751;1270;41151;-57
2022/11/02 07:48:24;;;;;;;;;;;;;9.30;97961.80;;;;108629;1270;41696;-56
2022/11/02 07:50:52;;;;;;;;;;;;;9.38;97961.40;;;;108591;1269;41237;-56
2022/11/02 07:53:21;;;;;;;;;;;;;9.40;97961.60;;;;108636;1265;41167;-56
2022/11/02 07:55:49;;;;;;;;;;;;;9.50;97956.00;;;;108875;1270;41153;-57
2022/11/02 07:58:18;;;;;;;;;;;;;9.60;97950.60;;;;108645;1270;42354;-56
2022/11/02 08:00:46;;;;;;;;;;;;;9.60;97955.00;;;;108624;1270;41243;-57
2022/11/02 08:03:15;;;;;;;;;;;;;9.60;97951.20;;;;108825;1270;41895;-57
2022/11/02 08:05:44;;;;;;;;;;;;;9.60;97954.80;;;;108798;1271;41180;-56
2022/11/02 08:08:14;;;;;;;;;;;;;9.66;97955.60;;;;108616;1270;41225;-55
2022/11/02 08:10:43;;;;;;;;;;;;;9.70;97949.40;;;;108662;1270;41180;-59
2022/11/02 08:13:15;;;;;;;;;;;;;9.74;97954.60;;;;108758;1262;41174;-57
2022/11/02 08:15:43;;;;;;;;;;;;;9.70;97950.80;;;;108756;1270;41418;-57
2022/11/02 08:18:16;;;;;;;;;;;;;9.50;97950.00;;;;108743;1270;41361;-57
2022/11/02 08:20:45;;;;;;;;;;;;;9.50;97954.80;;;;108583;1270;41235;-57
2022/11/02 08:23:14;;;;;;;;;;;;;9.50;97953.60;;;;108606;1270;41150;-56
2022/11/02 08:25:47;;;;;;;;;;;;;9.50;97959.20;;;;108596;1270;41578;-57
2022/11/02 08:28:16;;;;;;;;;;;;;9.60;97958.60;;;;108624;1270;41163;-57
2022/11/02 08:30:45;;;;;;;;;;;;;9.60;97956.00;;;;108628;1270;41255;-58
2022/11/02 08:33:14;;;;;;;;;;;;;9.70;97963.20;;;;108707;1269;41162;-58
2022/11/02 08:35:44;;;;;;;;;;;;;9.70;97959.40;;;;108876;1267;41248;-57
2022/11/02 08:38:13;;;;;;;;;;;;;9.72;97961.40;;;;108847;1266;41145;-57
2022/11/02 08:40:41;;;;;;;;;;;;;9.80;97954.40;;;;108906;1270;41145;-56
2022/11/02 08:43:13;;;;;;;;;;;;;9.90;97958.00;;;;108822;1270;41147;-56
2022/11/02 08:45:43;;;;;;;;;;;;;10.00;97961.20;;;;108905;1269;40735;-57
2022/11/02 08:48:32;;;;;;;;;;;;;10.00;97964.80;;;;108748;1269;41174;-58
2022/11/02 08:51:01;;;;;;;;;;;;;10.10;97964.80;;;;108998;1266;41239;-56
2022/11/02 08:53:30;;;;;;;;;;;;;10.10;97971.00;;;;108838;1269;41141;-58
2022/11/02 08:55:59;;;;;;;;;;;;;10.10;97965.60;;;;108580;1266;41640;-57
2022/11/02 08:58:28;;;;;;;;;;;;;10.20;97966.20;;;;108633;1271;41595;-57
2022/11/02 09:00:57;;;;;;;;;;;;;10.20;97969.20;;;;108890;1269;42386;-56
2022/11/02 09:03:27;;;;;;;;;;;;;10.30;97965.00;;;;108879;1269;41149;-57
2022/11/02 09:05:56;;;;;;;;;;;;;10.40;97968.40;;;;108843;1269;41534;-57
2022/11/02 09:08:26;;;;;;;;;;;;;10.44;97972.80;;;;108834;1260;41135;-57
2022/11/02 09:11:00;;;;;;;;;;;;;10.52;97974.20;;;;108869;1269;42150;-57
2022/11/02 09:13:28;;;;;;;;;;;;;10.58;97968.40;;;;108852;1269;41141;-57
2022/11/02 09:15:58;;;;;;;;;;;;;10.52;97972.00;;;;108882;1268;42135;-57
2022/11/02 09:18:27;;;;;;;;;;;;;10.50;97970.20;;;;108993;1269;41156;-57
2022/11/02 09:20:55;;;;;;;;;;;;;10.50;97971.20;;;;108956;1267;41409;-57
2022/11/02 09:23:24;;;;;;;;;;;;;10.60;97964.00;;;;108969;1267;41147;-56
2022/11/02 09:25:53;;;;;;;;;;;;;10.60;97964.60;;;;108931;1269;41656;-57
2022/11/02 09:28:22;;;;;;;;;;;;;10.70;97963.60;;;;108911;1269;41144;-57
2022/11/02 09:30:50;;;;;;;;;;;;;10.70;97956.20;;;;108994;1269;41155;-57
2022/11/02 09:33:19;;;;;;;;;;;;;10.80;97950.00;;;;109040;1269;41162;-57
2022/11/02 09:35:47;;;;;;;;;;;;;10.88;97949.20;;;;108994;1269;41462;-57
2022/11/02 09:38:19;;;;;;;;;;;;;10.90;97950.20;;;;108878;1269;41238;-57
2022/11/02 09:40:52;;;;;;;;;;;;;11.00;97946.60;;;;108626;1269;41144;-56
2022/11/02 09:43:21;;;;;;;;;;;;;11.10;97943.00;;;;108801;1269;41230;-57
2022/11/02 09:46:09;;;;;;;;;;;;;11.20;97938.80;;;;108841;1265;41574;-57
2022/11/02 09:48:45;;;;;;;;;;;;;11.30;97937.60;;;;108831;1266;41236;-56
2022/11/02 09:51:14;;;;;;;;;;;;;11.40;97945.40;;;;108955;1269;41139;-56
2022/11/02 09:54:03;;;;;;;;;;;;;11.44;97946.40;;;;108975;1269;41183;-57
2022/11/02 09:56:32;;;;;;;;;;;;;11.44;97948.80;;;;108961;1269;42126;-57
2022/11/02 09:59:03;;;;;;;;;;;;;11.20;97958.80;;;;108964;1269;41730;-56
2022/11/02 10:01:31;;;;;;;;;;;;;11.12;97957.00;;;;108978;1269;41139;-57
2022/11/02 10:04:00;;;;;;;;;;;;;11.00;97951.20;;;;108943;1266;41760;-57
2022/11/02 10:06:29;;;;;;;;;;;;;10.90;97947.40;;;;109016;1269;41148;-57
2022/11/02 10:09:09;;;;;;;;;;;;;11.00;97953.20;;;;108895;1269;41698;-57
2022/11/02 10:11:47;;;;;;;;;;;;;11.00;97948.80;;;;108981;1269;41162;-57
2022/11/02 10:14:17;;;;;;;;;;;;;11.10;97942.60;;;;108906;1269;41533;-57
2022/11/02 10:16:54;;;;;;;;;;;;;11.12;97940.40;;;;108933;1269;41645;-56
2022/11/02 10:19:22;;;;;;;;;;;;;11.10;97945.60;;;;108970;1260;41299;-57
2022/11/02 10:21:55;;;;;;;;;;;;;11.10;97947.80;;;;108902;1267;41508;-57
2022/11/02 10:24:24;;;;;;;;;;;;;11.20;97950.40;;;;108994;1269;42014;-57
2022/11/02 10:26:56;;;;;;;;;;;;;11.20;97943.20;;;;109035;1269;41680;-57
2022/11/02 10:29:32;;;;;;;;;;;;;11.30;97945.40;;;;108933;1268;41136;-56
2022/11/02 10:32:02;;;;;;;;;;;;;11.30;97937.20;;;;108860;1269;41160;-57
2022/11/02 10:34:32;;;;;;;;;;;;;11.40;97936.60;;;;108973;1269;41238;-57
2022/11/02 10:37:14;;;;;;;;;;;;;11.40;97934.60;;;;108801;1269;41137;-57
2022/11/02 10:39:43;;;;;;;;;;;;;11.50;97936.80;;;;108823;1269;41615;-55
2022/11/02 10:42:21;;;;;;;;;;;;;11.50;97934.80;;;;108766;1269;41224;-55
2022/11/02 10:45:19;;;;;;;;;;;;;11.60;97934.60;;;;108813;1271;41182;-55
2022/11/02 10:47:54;;;;;;;;;;;;;11.50;97933.40;;;;108877;1269;41196;-57
2022/11/02 10:50:28;;;;;;;;;;;;;11.48;97936.40;;;;109003;1266;42152;-56
2022/11/02 10:52:59;;;;;;;;;;;;;11.40;97937.20;;;;108910;1269;41219;-57
2022/11/02 10:55:53;;;;;;;;;;;;;11.40;97937.80;;;;108694;1266;42070;-57
2022/11/02 10:58:21;;;;;;;;;;;;;11.48;97936.00;;;;108811;1269;41141;-56
2022/11/02 11:00:51;;;;;;;;;;;;;11.50;97932.20;;;;108635;1270;41472;-56
2022/11/02 11:03:20;;;;;;;;;;;;;11.60;97931.80;;;;108590;1269;41493;-56
2022/11/02 11:05:49;;;;;;;;;;;;;11.60;97931.60;;;;108564;1271;41189;-56
2022/11/02 11:08:24;;;;;;;;;;;;;11.70;97922.80;;;;108790;1269;41170;-57
2022/11/02 11:10:52;;;;;;;;;;;;;11.74;97926.40;;;;108868;1269;41151;-57
2022/11/02 11:13:22;;;;;;;;;;;;;11.80;97920.40;;;;108977;1269;41852;-57
2022/11/02 11:16:11;;;;;;;;;;;;;11.90;97919.60;;;;108945;1265;41144;-57
2022/11/02 11:18:43;;;;;;;;;;;;;11.90;97917.60;;;;108970;1269;41631;-56
2022/11/02 11:21:35;;;;;;;;;;;;;11.90;97910.20;;;;108883;1270;41696;-56
2022/11/02 11:24:19;;;;;;;;;;;;;11.96;97912.80;;;;108931;1265;41143;-56
2022/11/02 11:27:00;;;;;;;;;;;;;12.00;97916.00;;;;108869;1269;41151;-57
2022/11/02 11:29:30;;;;;;;;;;;;;12.00;97910.60;;;;108930;1268;41740;-56
2022/11/02 11:31:59;;;;;;;;;;;;;12.00;97908.40;;;;108863;1269;41153;-57
2022/11/02 11:34:29;;;;;;;;;;;;;12.00;97912.80;;;;108911;1266;42069;-56
2022/11/02 11:37:11;;;;;;;;;;;;;12.00;97912.60;;;;109006;1266;42174;-57
2022/11/02 11:39:41;;;;;;;;;;;;;12.10;97914.20;;;;108900;1270;41176;-57
2022/11/02 11:42:19;;;;;;;;;;;;;12.10;97913.00;;;;109002;1269;41619;-56
2022/11/02 11:44:56;;;;;;;;;;;;;12.10;97912.40;;;;108966;1265;41611;-59
2022/11/02 11:47:29;;;;;;;;;;;;;12.10;97919.60;;;;108954;1266;41231;-58
2022/11/02 11:49:59;;;;;;;;;;;;;12.10;97916.40;;;;108859;1269;41262;-58
2022/11/02 11:52:38;;;;;;;;;;;;;12.10;97916.00;;;;108969;1269;41233;-56
2022/11/02 11:55:19;;;;;;;;;;;;;12.10;97911.20;;;;108802;1269;41379;-57
2022/11/02 11:58:07;;;;;;;;;;;;;12.10;97908.20;;;;108872;1266;41139;-57
2022/11/02 12:00:36;;;;;;;;;;;;;12.10;97906.40;;;;108835;1267;41142;-57
2022/11/02 12:03:05;;;;;;;;;;;;;12.10;97902.20;;;;108952;1269;41232;-57
2022/11/02 12:05:47;;;;;;;;;;;;;12.10;97899.40;;;;108989;1269;41245;-57
2022/11/02 12:08:16;;;;;;;;;;;;;12.10;97899.00;;;;108974;1269;41156;-56
2022/11/02 12:11:03;;;;;;;;;;;;;12.10;97899.40;;;;109002;1269;41226;-57
2022/11/02 12:13:44;;;;;;;;;;;;;12.10;97891.20;;;;108910;1269;41887;-56
2022/11/02 12:16:18;;;;;;;;;;;;;12.12;97896.20;;;;108835;1266;41624;-56
2022/11/02 12:18:46;;;;;;;;;;;;;12.20;97888.80;;;;108758;1266;41143;-56
2022/11/02 12:21:22;;;;;;;;;;;;;12.20;97887.20;;;;108824;1269;41622;-57
2022/11/02 12:23:50;;;;;;;;;;;;;12.28;97884.40;;;;108810;1269;41690;-57
2022/11/02 12:26:25;;;;;;;;;;;;;12.30;97884.00;;;;108779;1269;41164;-56
2022/11/02 12:29:00;;;;;;;;;;;;;12.30;97882.00;;;;108786;1266;41714;-56
2022/11/02 12:31:31;;;;;;;;;;;;;12.30;97876.60;;;;108814;1259;41283;-57
2022/11/02 12:34:02;;;;;;;;;;;;;12.30;97867.60;;;;108795;1267;41621;-56
2022/11/02 12:36:50;;;;;;;;;;;;;12.20;97864.00;;;;108834;1269;41155;-57
2022/11/02 12:39:57;;;;;;;;;;;;;12.20;97868.20;;;;108923;1269;42161;-57
2022/11/02 12:42:26;;;;;;;;;;;;;12.20;97866.00;;;;108960;1269;42290;-57
2022/11/02 12:45:01;;;;;;;;;;;;;12.20;97870.40;;;;108957;1269;41937;-56
2022/11/02 12:47:39;;;;;;;;;;;;;12.30;97873.60;;;;108963;1263;41241;-56
2022/11/02 12:50:29;;;;;;;;;;;;;12.30;97871.20;;;;108931;1269;41145;-57
2022/11/02 12:53:16;;;;;;;;;;;;;12.30;97867.00;;;;109037;1268;41281;-55
2022/11/02 12:55:45;;;;;;;;;;;;;12.40;97865.20;;;;109039;1267;41146;-57
2022/11/02 12:58:21;;;;;;;;;;;;;12.40;97866.40;;;;109047;1267;41131;-56
2022/11/02 13:00:59;;;;;;;;;;;;;12.40;97873.00;;;;109085;1260;42290;-57
2022/11/02 13:03:43;;;;;;;;;;;;;12.40;97870.40;;;;109085;1268;41151;-56
2022/11/02 13:06:14;;;;;;;;;;;;;12.40;97869.20;;;;109012;1267;41252;-56
2022/11/02 13:08:44;;;;;;;;;;;;;12.48;97875.40;;;;108920;1268;42399;-56
2022/11/02 13:11:39;;;;;;;;;;;;;12.50;97872.00;;;;108985;1259;41185;-56
2022/11/02 13:14:12;;;;;;;;;;;;;12.50;97876.40;;;;108749;1267;41647;-57
2022/11/02 13:16:48;;;;;;;;;;;;;12.40;97880.00;;;;108973;1266;41234;-55
2022/11/02 13:19:21;;;;;;;;;;;;;12.40;97877.20;;;;109054;1268;41145;-56
2022/11/02 13:21:53;;;;;;;;;;;;;12.40;97882.00;;;;109031;1268;41610;-57
2022/11/02 13:24:23;;;;;;;;;;;;;12.32;97884.60;;;;109016;1264;41604;-56
2022/11/02 13:26:54;;;;;;;;;;;;;12.30;97884.00;;;;108988;1266;41906;-55
2022/11/02 13:29:30;;;;;;;;;;;;;12.30;97884.60;;;;108954;1268;41793;-57
2022/11/02 13:32:10;;;;;;;;;;;;;12.26;97879.60;;;;108957;1268;41283;-57
2022/11/02 13:34:40;;;;;;;;;;;;;12.20;97882.40;;;;109058;1268;42503;-57
2022/11/02 13:37:10;;;;;;;;;;;;;12.20;97884.40;;;;108981;1268;41172;-56
2022/11/02 13:39:40;;;;;;;;;;;;;12.20;97880.80;;;;108932;1268;41307;-56
2022/11/02 13:42:16;;;;;;;;;;;;;12.22;97879.80;;;;109028;1264;41144;-56
2022/11/02 13:45:03;;;;;;;;;;;;;12.24;97881.60;;;;108992;1268;41596;-56
2022/11/02 13:47:51;;;;;;;;;;;;;12.20;97885.00;;;;109042;1268;41931;-56
2022/11/02 13:50:21;;;;;;;;;;;;;12.20;97880.80;;;;109026;1268;41147;-56
2022/11/02 13:52:51;;;;;;;;;;;;;12.22;97884.40;;;;108987;1268;41315;-56
2022/11/02 13:55:21;;;;;;;;;;;;;12.26;97887.20;;;;109043;1268;41626;-56
2022/11/02 13:57:52;;;;;;;;;;;;;12.20;97885.80;;;;109023;1266;41907;-57
2022/11/02 14:00:24;;;;;;;;;;;;;12.20;97892.00;;;;109041;1260;41633;-55
2022/11/02 14:03:00;;;;;;;;;;;;;12.20;97896.00;;;;109001;1268;41167;-56
2022/11/02 14:05:30;;;;;;;;;;;;;12.30;97893.00;;;;109078;1267;41125;-56
2022/11/02 14:08:02;;;;;;;;;;;;;12.30;97893.80;;;;109051;1268;41910;-56
2022/11/02 14:10:33;;;;;;;;;;;;;12.30;97888.80;;;;109013;1270;41472;-56
2022/11/02 14:13:01;;;;;;;;;;;;;12.30;97892.60;;;;109068;1268;41176;-56
2022/11/02 14:15:30;;;;;;;;;;;;;12.30;97892.20;;;;109017;1268;42504;-55